Time;durP1;ratioP1;P1;durP2;ratioP2;P2;SDS_P1;SDS_P2;PMS_P1;PMS_P2;Temp;Humidity;BMP_temperature;BMP_pressure;BME280_temperature;BME280_humidity;BME280_pressure;Samples;Min_cycle;Max_cycle;Signal;HPM_P1;HPM_P2
2024/04/10 00:02:18;;;;;;;1.55;1.40;;;;;;;;;;5473674;26;20861;-67
2024/04/10 00:04:48;;;;;;;3.05;1.42;;;;;;;;;;5463091;26;20070;-67
2024/04/10 00:07:14;;;;;;;1.75;1.65;;;;;;;;;;5474012;26;20450;-66
2024/04/10 00:09:40;;;;;;;1.30;1.30;;;;;;;;;;5469077;26;20400;-68
2024/04/10 00:12:07;;;;;;;1.85;1.60;;;;;;;;;;5472979;26;20441;-67
2024/04/10 00:14:36;;;;;;;1.77;1.60;;;;;;;;;;5459537;26;20468;-66
2024/04/10 00:17:03;;;;;;;2.65;2.00;;;;;;;;;;5468034;26;20094;-68
2024/04/10 00:19:29;;;;;;;3.40;1.70;;;;;;;;;;5468400;26;20497;-68
2024/04/10 00:21:55;;;;;;;2.88;1.50;;;;;;;;;;5469741;26;20572;-68
2024/04/10 00:24:21;;;;;;;1.95;1.40;;;;;;;;;;5467924;26;20336;-66
2024/04/10 00:26:51;;;;;;;4.32;2.38;;;;;;;;;;5474226;26;20002;-67
2024/04/10 00:29:17;;;;;;;6.15;2.00;;;;;;;;;;5468782;26;20062;-67
2024/04/10 00:31:45;;;;;;;2.20;1.75;;;;;;;;;;5473965;26;19999;-67
2024/04/10 00:34:11;;;;;;;1.70;1.60;;;;;;;;;;5466198;26;20005;-66
2024/04/10 00:36:37;;;;;;;1.80;1.70;;;;;;;;;;5469669;26;20013;-66
2024/04/10 00:39:04;;;;;;;2.25;1.48;;;;;;;;;;5466568;26;20012;-67
2024/04/10 00:41:30;;;;;;;2.10;1.90;;;;;;;;;;5460213;26;20001;-66
2024/04/10 00:43:56;;;;;;;2.17;1.98;;;;;;;;;;5465384;26;20008;-66
2024/04/10 00:46:23;;;;;;;2.70;1.88;;;;;;;;;;5448280;26;20429;-66
2024/04/10 00:48:50;;;;;;;4.80;1.58;;;;;;;;;;5468638;26;20025;-67
2024/04/10 00:51:26;;;;;;;1.58;1.52;;;;;;;;;;5466888;26;20006;-67
2024/04/10 00:53:52;;;;;;;4.65;1.55;;;;;;;;;;5468486;26;20430;-68
2024/04/10 00:56:18;;;;;;;1.92;1.52;;;;;;;;;;5468340;26;20057;-67
2024/04/10 00:58:45;;;;;;;2.03;1.85;;;;;;;;;;5471356;26;20007;-66
2024/04/10 01:01:11;;;;;;;3.40;1.70;;;;;;;;;;5467472;26;19998;-67
2024/04/10 01:03:38;;;;;;;1.70;1.60;;;;;;;;;;5469473;26;19990;-67
2024/04/10 01:06:05;;;;;;;1.42;1.35;;;;;;;;;;5461641;26;19998;-67
2024/04/10 01:08:32;;;;;;;3.45;2.05;;;;;;;;;;5454352;26;20005;-68
2024/04/10 01:10:59;;;;;;;8.35;1.85;;;;;;;;;;5466671;26;20041;-67
2024/04/10 01:13:26;;;;;;;1.45;1.35;;;;;;;;;;5471586;26;20002;-67
2024/04/10 01:15:52;;;;;;;2.08;1.98;;;;;;;;;;5467841;26;20006;-66
2024/04/10 01:18:18;;;;;;;2.00;1.30;;;;;;;;;;5468161;26;20006;-67
2024/04/10 01:20:45;;;;;;;4.57;1.52;;;;;;;;;;5472407;26;20315;-69
2024/04/10 01:23:11;;;;;;;7.82;1.75;;;;;;;;;;5468855;26;20672;-67
2024/04/10 01:25:37;;;;;;;2.92;1.30;;;;;;;;;;5470467;26;20006;-67
2024/04/10 01:28:03;;;;;;;1.20;1.20;;;;;;;;;;5436323;26;20461;-67
2024/04/10 01:30:30;;;;;;;1.27;1.27;;;;;;;;;;5465806;26;20510;-66
2024/04/10 01:32:56;;;;;;;1.35;1.35;;;;;;;;;;5441810;26;20892;-67
2024/04/10 01:35:22;;;;;;;1.75;1.63;;;;;;;;;;5460148;26;20009;-67
2024/04/10 01:37:48;;;;;;;4.88;1.60;;;;;;;;;;5464013;26;20030;-69
2024/04/10 01:40:14;;;;;;;1.77;1.63;;;;;;;;;;5468787;26;20077;-68
2024/04/10 01:42:45;;;;;;;6.88;1.50;;;;;;;;;;5467856;26;20460;-69
2024/04/10 01:45:12;;;;;;;4.18;1.35;;;;;;;;;;5470991;26;20002;-68
2024/04/10 01:47:38;;;;;;;1.65;1.55;;;;;;;;;;5474480;26;20006;-68
2024/04/10 01:50:05;;;;;;;6.57;1.55;;;;;;;;;;5466316;26;20321;-68
2024/04/10 01:52:31;;;;;;;9.32;1.40;;;;;;;;;;5457285;26;20001;-69
2024/04/10 01:54:57;;;;;;;1.75;1.65;;;;;;;;;;5459009;26;20388;-66
2024/04/10 01:57:24;;;;;;;4.85;1.35;;;;;;;;;;5475259;26;20783;-68
2024/04/10 01:59:50;;;;;;;1.33;1.33;;;;;;;;;;5464317;26;20464;-66
2024/04/10 02:02:16;;;;;;;5.15;1.45;;;;;;;;;;5472994;26;20036;-66
2024/04/10 02:04:42;;;;;;;1.50;1.45;;;;;;;;;;5467402;26;19997;-67
2024/04/10 02:07:08;;;;;;;1.13;1.13;;;;;;;;;;5467693;26;20499;-66
2024/04/10 02:09:35;;;;;;;3.60;1.40;;;;;;;;;;5485191;26;19998;-66
2024/04/10 02:12:02;;;;;;;1.40;1.30;;;;;;;;;;5466607;26;20002;-70
2024/04/10 02:14:32;;;;;;;1.20;1.20;;;;;;;;;;5414053;26;20275;-66
2024/04/10 02:16:59;;;;;;;2.30;1.10;;;;;;;;;;5431802;26;20513;-69
2024/04/10 02:19:25;;;;;;;1.27;1.20;;;;;;;;;;5443562;26;20357;-66
2024/04/10 02:21:52;;;;;;;1.50;1.38;;;;;;;;;;5430231;26;20463;-66
2024/04/10 02:24:19;;;;;;;3.10;1.20;;;;;;;;;;5449528;26;19994;-63
2024/04/10 02:26:45;;;;;;;4.70;1.40;;;;;;;;;;5426441;26;20491;-63
2024/04/10 02:29:11;;;;;;;4.70;2.05;;;;;;;;;;5428068;26;20018;-63
2024/04/10 02:31:38;;;;;;;5.57;1.20;;;;;;;;;;5446322;26;20406;-64
2024/04/10 02:34:04;;;;;;;1.48;1.38;;;;;;;;;;5438654;26;20330;-67
2024/04/10 02:36:30;;;;;;;1.33;1.33;;;;;;;;;;5430206;26;19998;-64
2024/04/10 02:38:56;;;;;;;1.40;1.30;;;;;;;;;;5441213;26;20050;-64
2024/04/10 02:41:22;;;;;;;4.78;1.65;;;;;;;;;;5409844;26;20010;-63
2024/04/10 02:43:48;;;;;;;1.17;1.17;;;;;;;;;;5443326;26;20632;-63
2024/04/10 02:46:17;;;;;;;1.92;1.33;;;;;;;;;;5440459;26;19999;-64
2024/04/10 02:48:44;;;;;;;5.10;1.48;;;;;;;;;;5409198;26;20691;-64
2024/04/10 02:51:10;;;;;;;8.30;1.67;;;;;;;;;;5430293;26;20863;-67
2024/04/10 02:53:36;;;;;;;1.60;1.50;;;;;;;;;;5444177;26;19990;-64
2024/04/10 02:56:04;;;;;;;3.92;1.67;;;;;;;;;;5436168;26;20137;-71
2024/04/10 02:58:30;;;;;;;2.67;1.13;;;;;;;;;;5456266;26;20496;-69
2024/04/10 03:00:56;;;;;;;2.28;1.30;;;;;;;;;;5451337;26;20017;-67
2024/04/10 03:03:23;;;;;;;1.95;1.50;;;;;;;;;;5433109;26;20564;-63
2024/04/10 03:06:05;;;;;;;1.58;1.38;;;;;;;;;;5426749;26;20515;-65
2024/04/10 03:08:32;;;;;;;1.45;1.30;;;;;;;;;;5435629;26;20006;-68
2024/04/10 03:10:58;;;;;;;5.47;1.70;;;;;;;;;;5413949;26;20006;-64
2024/04/10 03:13:25;;;;;;;1.70;1.60;;;;;;;;;;5464331;26;20438;-63
2024/04/10 03:15:51;;;;;;;3.10;1.63;;;;;;;;;;5464766;26;20386;-64
2024/04/10 03:18:17;;;;;;;1.92;1.60;;;;;;;;;;5467375;26;20532;-64
2024/04/10 03:20:43;;;;;;;7.38;1.83;;;;;;;;;;5445276;26;19990;-64
2024/04/10 03:23:09;;;;;;;9.15;1.83;;;;;;;;;;5469885;26;20027;-64
2024/04/10 03:25:36;;;;;;;1.40;1.30;;;;;;;;;;5438890;26;20002;-67
2024/04/10 03:28:03;;;;;;;4.03;1.92;;;;;;;;;;5468929;26;20002;-64
2024/04/10 03:30:29;;;;;;;4.45;2.25;;;;;;;;;;5464074;26;21251;-66
2024/04/10 03:32:55;;;;;;;5.95;1.70;;;;;;;;;;5446837;26;20010;-63
2024/04/10 03:35:22;;;;;;;1.70;1.38;;;;;;;;;;5470876;26;20718;-63
2024/04/10 03:37:49;;;;;;;4.07;1.75;;;;;;;;;;5470421;26;20442;-63
2024/04/10 03:40:15;;;;;;;5.60;1.90;;;;;;;;;;5468896;26;20006;-64
2024/04/10 03:42:41;;;;;;;6.72;1.83;;;;;;;;;;5473309;26;19998;-63
2024/04/10 03:45:08;;;;;;;2.97;1.85;;;;;;;;;;5434282;26;19994;-64
2024/04/10 03:47:35;;;;;;;2.58;1.50;;;;;;;;;;5484608;26;20016;-65
2024/04/10 03:50:01;;;;;;;4.63;2.13;;;;;;;;;;5460528;26;19994;-63
2024/04/10 03:52:27;;;;;;;5.93;2.22;;;;;;;;;;5471893;26;20006;-65
2024/04/10 03:54:53;;;;;;;1.55;1.45;;;;;;;;;;5471081;26;20002;-63
2024/04/10 03:57:19;;;;;;;3.53;1.63;;;;;;;;;;5466521;26;20017;-64
2024/04/10 03:59:45;;;;;;;7.25;1.52;;;;;;;;;;5469970;26;20010;-64
2024/04/10 04:02:12;;;;;;;1.33;1.23;;;;;;;;;;5438428;26;20001;-63
2024/04/10 04:04:38;;;;;;;2.83;2.38;;;;;;;;;;5471962;26;19998;-66
2024/04/10 04:07:04;;;;;;;4.63;1.50;;;;;;;;;;5464206;26;20017;-64
2024/04/10 04:09:30;;;;;;;1.65;1.27;;;;;;;;;;5470486;26;20018;-63
2024/04/10 04:11:56;;;;;;;4.80;1.67;;;;;;;;;;5470346;26;20061;-63
2024/04/10 04:14:22;;;;;;;2.47;1.33;;;;;;;;;;5460258;26;19991;-66
2024/04/10 04:16:49;;;;;;;2.22;1.80;;;;;;;;;;5465122;26;20055;-63
2024/04/10 04:19:16;;;;;;;6.80;1.58;;;;;;;;;;5436919;26;20059;-65
2024/04/10 04:21:42;;;;;;;1.60;1.50;;;;;;;;;;5466920;26;20029;-63
2024/04/10 04:24:08;;;;;;;4.03;1.35;;;;;;;;;;5447683;26;20082;-64
2024/04/10 04:26:34;;;;;;;9.13;1.65;;;;;;;;;;5466370;26;20050;-65
2024/04/10 04:29:00;;;;;;;2.58;1.70;;;;;;;;;;5471258;26;20056;-63
2024/04/10 04:31:26;;;;;;;7.45;2.25;;;;;;;;;;5464764;26;20002;-63
2024/04/10 04:33:54;;;;;;;4.40;1.35;;;;;;;;;;5464896;26;19998;-63
2024/04/10 04:36:20;;;;;;;0.88;0.88;;;;;;;;;;5472951;26;20009;-64
2024/04/10 04:38:46;;;;;;;3.35;1.40;;;;;;;;;;5468020;26;20073;-63
2024/04/10 04:41:13;;;;;;;4.22;1.48;;;;;;;;;;5462553;26;22340;-63
2024/04/10 04:43:39;;;;;;;3.85;1.58;;;;;;;;;;5466966;26;19998;-66
2024/04/10 04:46:11;;;;;;;2.78;1.70;;;;;;;;;;5469165;26;20459;-63
2024/04/10 04:48:37;;;;;;;1.60;1.50;;;;;;;;;;5468673;26;20322;-63
2024/04/10 04:51:10;;;;;;;3.05;1.60;;;;;;;;;;5467587;26;20009;-66
2024/04/10 04:53:36;;;;;;;1.10;1.10;;;;;;;;;;5439249;26;20575;-63
2024/04/10 04:56:02;;;;;;;10.57;2.28;;;;;;;;;;5469571;26;20474;-63
2024/04/10 04:58:28;;;;;;;1.25;1.25;;;;;;;;;;5465946;26;19994;-67
2024/04/10 05:00:56;;;;;;;6.15;1.45;;;;;;;;;;5437314;26;20830;-68
2024/04/10 05:06:07;;;;;;;7.90;1.77;;;;;;;;;;5469667;26;20071;-69
2024/04/10 05:08:33;;;;;;;8.32;1.63;;;;;;;;;;5466786;26;20002;-67
2024/04/10 05:11:03;;;;;;;4.22;1.27;;;;;;;;;;5465059;26;20008;-68
2024/04/10 05:13:29;;;;;;;2.78;1.60;;;;;;;;;;5428813;26;20010;-67
2024/04/10 05:15:58;;;;;;;5.20;1.55;;;;;;;;;;5463558;26;20544;-67
2024/04/10 05:18:25;;;;;;;2.28;1.48;;;;;;;;;;5472771;26;19994;-67
2024/04/10 05:20:52;;;;;;;4.68;1.58;;;;;;;;;;5463316;26;20028;-67
2024/04/10 05:23:18;;;;;;;1.52;1.45;;;;;;;;;;5470986;26;20004;-67
2024/04/10 05:25:46;;;;;;;11.18;1.60;;;;;;;;;;5470135;26;20005;-67
2024/04/10 05:28:12;;;;;;;2.80;1.40;;;;;;;;;;5440857;26;20502;-67
2024/04/10 05:30:38;;;;;;;1.40;1.30;;;;;;;;;;5441894;26;20006;-67
2024/04/10 05:33:05;;;;;;;1.20;1.20;;;;;;;;;;5464617;26;20011;-68
2024/04/10 05:35:31;;;;;;;4.00;1.48;;;;;;;;;;5469347;26;20060;-68
2024/04/10 05:37:59;;;;;;;1.63;1.52;;;;;;;;;;5469643;26;20477;-69
2024/04/10 05:40:25;;;;;;;1.88;1.17;;;;;;;;;;5478246;26;19993;-69
2024/04/10 05:42:52;;;;;;;1.50;1.40;;;;;;;;;;5444565;26;20012;-70
2024/04/10 05:45:18;;;;;;;1.20;1.20;;;;;;;;;;5447550;26;20002;-69
2024/04/10 05:47:50;;;;;;;2.45;1.60;;;;;;;;;;5474070;26;19998;-64
2024/04/10 05:50:17;;;;;;;3.05;1.38;;;;;;;;;;5429214;26;20413;-63
2024/04/10 05:52:43;;;;;;;3.25;2.00;;;;;;;;;;5466582;26;19994;-63
2024/04/10 05:55:10;;;;;;;1.13;0.93;;;;;;;;;;5468974;26;19998;-64
2024/04/10 05:57:36;;;;;;;2.08;1.20;;;;;;;;;;5473985;26;19994;-64
2024/04/10 06:00:03;;;;;;;1.40;1.30;;;;;;;;;;5472312;26;20008;-65
2024/04/10 06:02:30;;;;;;;1.25;1.23;;;;;;;;;;5479425;26;19994;-64
2024/04/10 06:05:00;;;;;;;1.00;1.00;;;;;;;;;;5470636;26;20006;-66
2024/04/10 06:07:26;;;;;;;2.50;1.40;;;;;;;;;;5480947;26;20426;-65
2024/04/10 06:09:56;;;;;;;1.10;1.10;;;;;;;;;;5439635;26;20001;-68
2024/04/10 06:12:22;;;;;;;1.20;1.20;;;;;;;;;;5470230;26;19994;-65
2024/04/10 06:14:54;;;;;;;1.10;1.10;;;;;;;;;;5468768;26;20215;-65
2024/04/10 06:17:21;;;;;;;1.13;1.13;;;;;;;;;;5466984;26;20014;-65
2024/04/10 06:19:48;;;;;;;1.25;1.10;;;;;;;;;;5464453;26;20018;-64
2024/04/10 06:22:14;;;;;;;1.08;1.08;;;;;;;;;;5449701;26;20043;-71
2024/04/10 06:24:44;;;;;;;2.08;1.40;;;;;;;;;;5469175;26;20015;-65
2024/04/10 06:27:10;;;;;;;1.65;1.00;;;;;;;;;;5472072;26;20018;-66
2024/04/10 06:29:38;;;;;;;0.98;0.98;;;;;;;;;;5469797;26;20782;-64
2024/04/10 06:32:04;;;;;;;1.05;1.05;;;;;;;;;;5466054;26;20012;-63
2024/04/10 06:34:31;;;;;;;0.95;0.95;;;;;;;;;;5463717;26;20002;-65
2024/04/10 06:36:57;;;;;;;1.13;1.13;;;;;;;;;;5458046;26;20006;-63
2024/04/10 06:39:23;;;;;;;1.00;1.00;;;;;;;;;;5463632;26;19994;-65
2024/04/10 06:41:49;;;;;;;1.20;1.20;;;;;;;;;;5465685;26;19994;-65
2024/04/10 06:44:15;;;;;;;0.93;0.93;;;;;;;;;;5462956;26;20013;-63
2024/04/10 06:46:42;;;;;;;0.80;0.80;;;;;;;;;;5460913;26;20041;-63
2024/04/10 06:49:11;;;;;;;1.13;1.00;;;;;;;;;;5464766;26;20049;-64
2024/04/10 06:51:38;;;;;;;1.00;1.00;;;;;;;;;;5459445;26;20064;-63
2024/04/10 06:54:04;;;;;;;0.90;0.90;;;;;;;;;;5457796;26;20075;-64
2024/04/10 06:56:30;;;;;;;0.93;0.93;;;;;;;;;;5458682;26;20422;-64
2024/04/10 06:58:58;;;;;;;1.05;1.05;;;;;;;;;;5431741;26;20024;-65
2024/04/10 07:01:24;;;;;;;0.90;0.90;;;;;;;;;;5450173;26;20389;-65
2024/04/10 07:03:51;;;;;;;0.90;0.90;;;;;;;;;;5466590;26;20079;-65
2024/04/10 07:06:17;;;;;;;0.90;0.90;;;;;;;;;;5460053;26;19994;-63
2024/04/10 07:08:51;;;;;;;1.10;1.10;;;;;;;;;;5430834;26;20005;-62
2024/04/10 07:11:21;;;;;;;1.00;1.00;;;;;;;;;;5430626;26;20102;-62
2024/04/10 07:13:48;;;;;;;0.90;0.90;;;;;;;;;;5463920;26;19995;-63
2024/04/10 07:16:15;;;;;;;0.98;0.98;;;;;;;;;;5459511;26;20714;-63
2024/04/10 07:18:41;;;;;;;1.00;1.00;;;;;;;;;;5461520;26;19995;-63
2024/04/10 07:21:08;;;;;;;0.95;0.95;;;;;;;;;;5462770;26;20470;-63
2024/04/10 07:23:38;;;;;;;0.98;0.98;;;;;;;;;;5464394;26;20009;-63
2024/04/10 07:26:08;;;;;;;1.10;1.10;;;;;;;;;;5465351;26;20008;-64
2024/04/10 07:28:35;;;;;;;0.80;0.80;;;;;;;;;;5465088;26;20477;-63
2024/04/10 07:31:01;;;;;;;0.90;0.90;;;;;;;;;;5460215;26;19998;-64
2024/04/10 07:33:27;;;;;;;0.80;0.80;;;;;;;;;;5402348;26;20416;-67
2024/04/10 07:35:53;;;;;;;0.90;0.90;;;;;;;;;;5467399;26;19998;-65
2024/04/10 07:38:20;;;;;;;0.70;0.70;;;;;;;;;;5463989;26;20409;-66
2024/04/10 07:40:56;;;;;;;1.13;0.98;;;;;;;;;;5472433;26;20002;-65
2024/04/10 07:43:22;;;;;;;0.90;0.90;;;;;;;;;;5462621;26;19990;-66
2024/04/10 07:45:48;;;;;;;0.90;0.90;;;;;;;;;;5434269;26;20004;-64
2024/04/10 07:48:14;;;;;;;0.82;0.82;;;;;;;;;;5467795;26;20467;-63
2024/04/10 07:50:41;;;;;;;2.90;1.13;;;;;;;;;;5470355;26;19998;-63
2024/04/10 07:53:07;;;;;;;1.00;1.00;;;;;;;;;;5468964;26;20012;-72
2024/04/10 07:55:33;;;;;;;1.00;1.00;;;;;;;;;;5475867;26;20008;-69
2024/04/10 07:57:59;;;;;;;1.10;1.10;;;;;;;;;;5468885;26;20099;-72
2024/04/10 08:00:27;;;;;;;1.00;1.00;;;;;;;;;;5466622;26;20474;-70
2024/04/10 08:02:53;;;;;;;1.02;1.02;;;;;;;;;;5473650;26;19998;-73
2024/04/10 08:05:19;;;;;;;1.05;1.05;;;;;;;;;;5465766;26;20009;-71
2024/04/10 08:07:46;;;;;;;1.00;1.00;;;;;;;;;;5470968;26;20009;-70
2024/04/10 08:10:12;;;;;;;1.00;1.00;;;;;;;;;;5471788;26;19998;-73
2024/04/10 08:12:39;;;;;;;1.02;1.02;;;;;;;;;;5473036;26;20009;-71
2024/04/10 08:15:08;;;;;;;0.93;0.93;;;;;;;;;;5461999;26;20113;-73
2024/04/10 08:17:39;;;;;;;1.25;1.25;;;;;;;;;;5471689;26;20603;-74
2024/04/10 08:20:05;;;;;;;1.00;1.00;;;;;;;;;;5465609;26;20079;-71
2024/04/10 08:22:31;;;;;;;1.10;1.10;;;;;;;;;;5446936;26;20063;-71
2024/04/10 08:24:58;;;;;;;1.10;1.10;;;;;;;;;;5473029;26;19990;-73
2024/04/10 08:27:24;;;;;;;0.90;0.90;;;;;;;;;;5442990;26;20006;-71
2024/04/10 08:29:50;;;;;;;1.20;1.20;;;;;;;;;;5468817;26;19994;-71
2024/04/10 08:32:17;;;;;;;1.13;1.13;;;;;;;;;;5437698;26;20090;-68
2024/04/10 08:34:43;;;;;;;1.17;0.88;;;;;;;;;;5471729;26;20009;-71
2024/04/10 08:37:10;;;;;;;1.02;1.02;;;;;;;;;;5479220;26;20022;-71
2024/04/10 08:39:36;;;;;;;0.90;0.90;;;;;;;;;;5441318;26;20580;-73
2024/04/10 08:42:04;;;;;;;0.95;0.90;;;;;;;;;;5463769;26;20461;-71
2024/04/10 08:44:31;;;;;;;0.90;0.90;;;;;;;;;;5439070;26;19998;-70
2024/04/10 08:46:58;;;;;;;0.93;0.93;;;;;;;;;;5472689;26;20309;-71
2024/04/10 08:49:24;;;;;;;0.90;0.90;;;;;;;;;;5470479;26;20463;-74
2024/04/10 08:51:51;;;;;;;2.08;1.00;;;;;;;;;;5472542;26;20005;-72
2024/04/10 08:54:20;;;;;;;0.80;0.80;;;;;;;;;;5483029;26;20356;-70
2024/04/10 08:56:46;;;;;;;0.90;0.90;;;;;;;;;;5473362;26;20018;-71
2024/04/10 08:59:12;;;;;;;3.92;1.15;;;;;;;;;;5473370;26;19998;-70
2024/04/10 09:01:41;;;;;;;1.00;1.00;;;;;;;;;;5478173;26;19994;-73
2024/04/10 09:04:13;;;;;;;1.00;1.00;;;;;;;;;;5473204;26;20005;-72
2024/04/10 09:06:39;;;;;;;1.00;1.00;;;;;;;;;;5469311;26;20024;-71
2024/04/10 09:09:08;;;;;;;0.90;0.90;;;;;;;;;;5469083;26;19998;-69
2024/04/10 09:11:37;;;;;;;1.00;1.00;;;;;;;;;;5475444;26;20005;-70
2024/04/10 09:14:11;;;;;;;1.10;1.10;;;;;;;;;;5470759;26;20302;-69
2024/04/10 09:16:37;;;;;;;0.98;0.98;;;;;;;;;;5468739;26;20215;-71
2024/04/10 09:19:16;;;;;;;1.13;1.13;;;;;;;;;;5469546;26;20010;-70
2024/04/10 09:21:44;;;;;;;1.08;1.08;;;;;;;;;;5469894;26;20018;-71
2024/04/10 09:24:13;;;;;;;1.08;1.08;;;;;;;;;;5465636;26;19994;-70
2024/04/10 09:26:41;;;;;;;0.90;0.90;;;;;;;;;;5469528;26;20002;-70
2024/04/10 09:29:09;;;;;;;0.90;0.90;;;;;;;;;;5467801;26;20446;-71
2024/04/10 09:31:36;;;;;;;1.00;1.00;;;;;;;;;;5460647;26;20071;-73
2024/04/10 09:34:05;;;;;;;0.90;0.90;;;;;;;;;;5434447;26;20005;-72
2024/04/10 09:36:35;;;;;;;1.20;1.20;;;;;;;;;;5469718;26;20222;-71
2024/04/10 09:39:05;;;;;;;0.90;0.90;;;;;;;;;;5466092;26;20006;-73
2024/04/10 09:41:34;;;;;;;1.00;1.00;;;;;;;;;;5468091;26;19998;-71
2024/04/10 09:44:00;;;;;;;1.10;1.10;;;;;;;;;;5466898;26;20006;-72
2024/04/10 09:46:34;;;;;;;1.20;1.20;;;;;;;;;;5474728;26;20449;-72
2024/04/10 09:49:07;;;;;;;1.10;1.10;;;;;;;;;;5470349;26;20075;-72
2024/04/10 09:51:35;;;;;;;1.10;1.10;;;;;;;;;;5432190;26;20002;-71
2024/04/10 09:54:02;;;;;;;1.00;1.00;;;;;;;;;;5464916;26;20441;-72
2024/04/10 09:56:28;;;;;;;2.22;1.25;;;;;;;;;;5463393;26;20460;-72
2024/04/10 09:58:55;;;;;;;2.67;1.20;;;;;;;;;;5459177;26;20459;-71
2024/04/10 10:01:24;;;;;;;2.28;1.23;;;;;;;;;;5460322;26;20005;-71
2024/04/10 10:03:59;;;;;;;1.67;1.08;;;;;;;;;;5466733;26;19998;-72
2024/04/10 10:06:25;;;;;;;;;;;;;;;;;;5464507;26;20010;-72
2024/04/10 10:08:51;;;;;;;1.10;1.10;;;;;;;;;;5433412;26;19943;-72
2024/04/10 10:11:22;;;;;;;1.10;1.10;;;;;;;;;;5428597;26;20002;-71
2024/04/10 10:15:22;;;;;;;1.20;1.20;;;;;;;;;;5410896;26;20354;-63
2024/04/10 10:17:54;;;;;;;1.20;1.20;;;;;;;;;;5379659;26;20693;-63
2024/04/10 10:20:20;;;;;;;1.30;1.30;;;;;;;;;;5390248;26;19995;-66
2024/04/10 10:23:03;;;;;;;1.10;1.10;;;;;;;;;;5388310;26;20008;-63
2024/04/10 10:25:29;;;;;;;3.15;1.48;;;;;;;;;;5388984;26;20003;-63
2024/04/10 10:28:08;;;;;;;1.40;1.40;;;;;;;;;;5388356;26;20541;-63
2024/04/10 10:30:34;;;;;;;1.10;1.10;;;;;;;;;;5388770;26;20008;-60
2024/04/10 10:33:07;;;;;;;3.20;1.65;;;;;;;;;;5378480;26;20081;-64
2024/04/10 10:35:33;;;;;;;1.10;1.10;;;;;;;;;;5378748;26;20011;-63
2024/04/10 10:38:04;;;;;;;1.30;1.17;;;;;;;;;;5386193;26;19996;-63
2024/04/10 10:40:34;;;;;;;1.85;1.40;;;;;;;;;;5367980;26;20015;-63
2024/04/10 10:43:03;;;;;;;1.10;1.10;;;;;;;;;;5387806;26;20014;-63
2024/04/10 10:45:30;;;;;;;1.20;1.10;;;;;;;;;;5388750;26;20497;-63
2024/04/10 10:47:56;;;;;;;1.55;1.45;;;;;;;;;;5379843;26;20003;-63
2024/04/10 10:50:22;;;;;;;1.63;1.40;;;;;;;;;;5391046;26;20728;-63
2024/04/10 10:52:49;;;;;;;1.40;1.40;;;;;;;;;;5362419;26;20001;-63
2024/04/10 10:55:15;;;;;;;1.45;1.40;;;;;;;;;;5382317;26;20055;-63
2024/04/10 10:57:41;;;;;;;1.67;1.58;;;;;;;;;;5388241;26;19999;-61
2024/04/10 11:00:17;;;;;;;1.73;1.63;;;;;;;;;;5375499;26;20012;-63
2024/04/10 11:02:46;;;;;;;2.00;1.60;;;;;;;;;;5390705;26;20683;-60
2024/04/10 11:05:13;;;;;;;3.47;2.20;;;;;;;;;;5374997;26;20080;-65
2024/04/10 11:07:41;;;;;;;2.17;1.50;;;;;;;;;;5387161;26;20000;-64
2024/04/10 11:10:11;;;;;;;1.73;1.63;;;;;;;;;;5374117;26;20031;-63
2024/04/10 11:12:37;;;;;;;1.65;1.55;;;;;;;;;;5387473;26;20007;-63
2024/04/10 11:15:08;;;;;;;4.72;1.48;;;;;;;;;;5385872;26;20383;-63
2024/04/10 11:17:34;;;;;;;1.20;1.20;;;;;;;;;;5391687;26;19996;-65
2024/04/10 11:20:00;;;;;;;1.60;1.60;;;;;;;;;;5383749;26;20482;-63
2024/04/10 11:22:26;;;;;;;1.58;1.48;;;;;;;;;;5381117;26;19997;-63
2024/04/10 11:24:53;;;;;;;2.20;1.90;;;;;;;;;;5377736;26;20443;-63
2024/04/10 11:27:19;;;;;;;1.50;1.40;;;;;;;;;;5366769;26;20621;-63
2024/04/10 11:29:47;;;;;;;1.63;1.50;;;;;;;;;;5378073;26;20320;-64
2024/04/10 11:32:14;;;;;;;1.70;1.50;;;;;;;;;;5361210;26;20308;-63
2024/04/10 11:34:40;;;;;;;2.03;1.35;;;;;;;;;;5376185;26;20334;-63
2024/04/10 11:37:06;;;;;;;2.25;1.52;;;;;;;;;;5371002;26;20042;-63
2024/04/10 11:39:32;;;;;;;1.30;1.30;;;;;;;;;;5378513;26;19999;-61
2024/04/10 11:41:58;;;;;;;1.50;1.40;;;;;;;;;;5371501;26;20749;-62
2024/04/10 11:44:26;;;;;;;2.63;1.42;;;;;;;;;;5372937;26;20018;-61
2024/04/10 11:46:52;;;;;;;1.40;1.40;;;;;;;;;;5368977;26;20051;-61
2024/04/10 11:49:21;;;;;;;1.92;1.40;;;;;;;;;;5369676;26;19996;-62
2024/04/10 11:51:47;;;;;;;1.63;1.52;;;;;;;;;;5390757;26;20477;-61
2024/04/10 11:54:13;;;;;;;1.48;1.38;;;;;;;;;;5368502;26;20011;-62
2024/04/10 11:56:39;;;;;;;1.50;1.40;;;;;;;;;;5361557;26;20008;-61
2024/04/10 11:59:06;;;;;;;1.55;1.45;;;;;;;;;;5387453;26;20246;-63
2024/04/10 12:01:33;;;;;;;1.70;1.60;;;;;;;;;;5365295;26;20003;-61
2024/04/10 12:03:59;;;;;;;4.35;3.55;;;;;;;;;;5353865;26;20036;-62
2024/04/10 12:06:25;;;;;;;1.60;1.50;;;;;;;;;;5363687;26;20402;-61
2024/04/10 12:08:51;;;;;;;2.83;1.70;;;;;;;;;;5342248;26;20447;-62
2024/04/10 12:11:18;;;;;;;1.60;1.50;;;;;;;;;;5355545;26;20511;-61
2024/04/10 12:13:45;;;;;;;2.28;1.40;;;;;;;;;;5349828;26;20065;-62
2024/04/10 12:16:11;;;;;;;1.80;1.70;;;;;;;;;;5343843;26;20000;-63
2024/04/10 12:18:37;;;;;;;1.30;1.30;;;;;;;;;;5349488;26;20019;-62
2024/04/10 12:21:04;;;;;;;1.20;1.20;;;;;;;;;;5348416;26;20015;-62
2024/04/10 12:23:30;;;;;;;1.58;1.20;;;;;;;;;;5349984;26;20012;-61
2024/04/10 12:25:56;;;;;;;1.77;1.60;;;;;;;;;;5345693;26;20005;-61
2024/04/10 12:28:22;;;;;;;2.38;1.60;;;;;;;;;;5351925;26;20003;-62
2024/04/10 12:30:49;;;;;;;3.45;1.70;;;;;;;;;;5350602;26;20047;-63
2024/04/10 12:33:15;;;;;;;1.45;1.40;;;;;;;;;;5348907;26;20005;-62
2024/04/10 12:38:26;;;;;;;1.50;1.40;;;;;;;;;;5348991;26;20032;-62
2024/04/10 12:40:59;;;;;;;1.55;1.50;;;;;;;;;;5340754;26;20234;-62
2024/04/10 12:43:25;;;;;;;1.80;1.70;;;;;;;;;;5326940;26;19996;-65
2024/04/10 12:45:52;;;;;;;2.05;1.88;;;;;;;;;;5332104;26;20043;-63
2024/04/10 12:48:18;;;;;;;1.58;1.48;;;;;;;;;;5354534;26;20342;-62
2024/04/10 12:50:54;;;;;;;1.30;1.30;;;;;;;;;;5362148;26;20000;-62
2024/04/10 12:53:20;;;;;;;1.98;1.58;;;;;;;;;;5346844;26;20124;-62
2024/04/10 12:55:55;;;;;;;2.00;1.83;;;;;;;;;;5359634;26;20031;-62
2024/04/10 12:58:21;;;;;;;1.70;1.60;;;;;;;;;;5364190;26;19999;-62
2024/04/10 13:00:49;;;;;;;1.60;1.50;;;;;;;;;;5361623;26;20011;-71
2024/04/10 13:03:18;;;;;;;1.40;1.30;;;;;;;;;;5367878;26;20073;-69
2024/04/10 13:05:52;;;;;;;1.58;1.48;;;;;;;;;;5365846;26;20448;-69
2024/04/10 13:08:18;;;;;;;1.70;1.60;;;;;;;;;;5362211;26;20127;-70
2024/04/10 13:10:45;;;;;;;1.70;1.60;;;;;;;;;;5363548;26;20094;-71
2024/04/10 13:13:11;;;;;;;1.60;1.50;;;;;;;;;;5369235;26;20007;-69
2024/04/10 13:15:37;;;;;;;3.50;1.80;;;;;;;;;;5365486;26;20446;-69
2024/04/10 13:18:03;;;;;;;1.80;1.70;;;;;;;;;;5360457;26;20000;-70
2024/04/10 13:20:29;;;;;;;1.50;1.40;;;;;;;;;;5361569;26;20007;-70
2024/04/10 13:22:55;;;;;;;1.48;1.38;;;;;;;;;;5363435;26;20000;-69
2024/04/10 13:25:22;;;;;;;1.88;1.77;;;;;;;;;;5363344;26;19995;-70
2024/04/10 13:27:48;;;;;;;1.50;1.40;;;;;;;;;;5359795;26;20103;-69
2024/04/10 13:30:15;;;;;;;2.10;1.70;;;;;;;;;;5369993;26;19996;-70
2024/04/10 13:32:42;;;;;;;1.70;1.60;;;;;;;;;;5362214;26;20352;-69
2024/04/10 13:35:08;;;;;;;4.13;1.67;;;;;;;;;;5369466;26;20007;-69
2024/04/10 13:37:34;;;;;;;1.65;1.55;;;;;;;;;;5368683;26;20004;-71
2024/04/10 13:40:01;;;;;;;1.50;1.40;;;;;;;;;;5364133;26;20004;-68
2024/04/10 13:42:27;;;;;;;1.83;1.70;;;;;;;;;;5361963;26;20019;-68
2024/04/10 13:44:53;;;;;;;1.70;1.60;;;;;;;;;;5369267;26;20454;-69
2024/04/10 13:47:19;;;;;;;1.77;1.63;;;;;;;;;;5336832;26;19996;-69
2024/04/10 13:49:45;;;;;;;1.75;1.65;;;;;;;;;;5357074;26;20027;-69
2024/04/10 13:52:11;;;;;;;1.80;1.42;;;;;;;;;;5363436;26;20039;-68
2024/04/10 13:54:38;;;;;;;1.67;1.52;;;;;;;;;;5363858;26;20043;-69
2024/04/10 13:57:04;;;;;;;1.55;1.45;;;;;;;;;;5365452;26;20000;-68
2024/04/10 13:59:30;;;;;;;2.15;1.73;;;;;;;;;;5369218;26;20064;-68
2024/04/10 14:01:56;;;;;;;1.50;1.40;;;;;;;;;;5364323;26;20044;-69
2024/04/10 14:04:23;;;;;;;1.70;1.60;;;;;;;;;;5370301;26;20011;-68
2024/04/10 14:06:50;;;;;;;2.33;1.90;;;;;;;;;;5375274;26;20004;-69
2024/04/10 14:09:19;;;;;;;3.63;1.85;;;;;;;;;;5373753;26;20478;-68
2024/04/10 14:11:45;;;;;;;2.28;1.40;;;;;;;;;;5374998;26;20023;-68
2024/04/10 14:14:11;;;;;;;1.63;1.45;;;;;;;;;;5362831;26;19991;-68
2024/04/10 14:16:39;;;;;;;2.17;1.67;;;;;;;;;;5369811;26;20030;-68
2024/04/10 14:19:06;;;;;;;4.65;1.98;;;;;;;;;;5375771;26;19996;-69
2024/04/10 14:21:32;;;;;;;1.60;1.50;;;;;;;;;;5371940;26;20477;-69
2024/04/10 14:23:58;;;;;;;2.00;1.67;;;;;;;;;;5375747;26;20329;-68
2024/04/10 14:26:24;;;;;;;1.67;1.58;;;;;;;;;;5376557;26;20113;-69
2024/04/10 14:28:51;;;;;;;1.67;1.58;;;;;;;;;;5370935;26;20509;-68
2024/04/10 14:31:18;;;;;;;2.00;1.88;;;;;;;;;;5373799;26;20008;-69
2024/04/10 14:33:44;;;;;;;1.48;1.45;;;;;;;;;;5363110;26;20107;-69
2024/04/10 14:36:11;;;;;;;2.00;1.60;;;;;;;;;;5368012;26;20016;-70
2024/04/10 14:38:37;;;;;;;1.60;1.50;;;;;;;;;;5369198;26;20015;-68
2024/04/10 14:41:04;;;;;;;1.73;1.40;;;;;;;;;;5371005;26;20743;-69
2024/04/10 14:43:31;;;;;;;1.73;1.63;;;;;;;;;;5368098;26;20376;-69
2024/04/10 14:45:58;;;;;;;1.70;1.60;;;;;;;;;;5367978;26;20008;-68
2024/04/10 14:48:24;;;;;;;4.22;2.05;;;;;;;;;;5373930;26;20491;-69
2024/04/10 14:50:54;;;;;;;3.08;2.15;;;;;;;;;;5368452;26;20032;-68